createdAt,value
2018-04-22T00:00:28.085Z,68.21
2018-04-22T00:01:28.043Z,68.11
2018-04-22T00:02:28.008Z,68.40
2018-04-22T00:03:27.963Z,68.01
2018-04-22T00:04:27.925Z,67.91
2018-04-22T00:05:27.880Z,67.60
2018-04-22T00:06:27.849Z,68.11
2018-04-22T00:07:27.801Z,68.17
2018-04-22T00:08:27.758Z,68.17
2018-04-22T00:09:27.719Z,68.17
2018-04-22T00:10:27.680Z,68.65
2018-04-22T00:11:27.638Z,68.07
2018-04-22T00:12:27.618Z,68.01
2018-04-22T00:13:27.555Z,67.60
2018-04-22T00:14:27.533Z,68.36
2018-04-22T00:15:27.482Z,68.17
2018-04-22T00:16:27.436Z,68.36
2018-04-22T00:17:27.393Z,68.17
2018-04-22T00:18:27.353Z,68.17
2018-04-22T00:19:27.310Z,68.27
2018-04-22T00:20:27.274Z,68.27
2018-04-22T00:21:27.229Z,68.36
2018-04-22T00:22:27.196Z,69.23
2018-04-22T00:23:27.149Z,68.46
2018-04-22T00:24:27.108Z,68.36
2018-04-22T00:25:27.065Z,68.65
2018-04-22T00:26:27.026Z,68.17
2018-04-22T00:27:26.986Z,68.84
2018-04-22T00:28:26.944Z,68.36
2018-04-22T00:29:26.903Z,69.13
2018-04-22T00:30:26.861Z,68.84
2018-04-22T00:31:26.820Z,68.65
2018-04-22T00:32:26.780Z,69.13
2018-04-22T00:33:26.741Z,69.03
2018-04-22T00:34:26.707Z,68.74
2018-04-22T00:35:26.660Z,68.65
2018-04-22T00:36:26.618Z,68.84
2018-04-22T00:37:26.579Z,68.36
2018-04-22T00:38:26.538Z,68.65
2018-04-22T00:39:26.520Z,69.13
2018-04-22T00:40:26.463Z,68.74
2018-04-22T00:41:26.413Z,69.13
2018-04-22T00:42:26.372Z,69.51
2018-04-22T00:43:26.348Z,69.89
2018-04-22T00:44:26.291Z,69.80
2018-04-22T00:45:26.249Z,69.80
2018-04-22T00:46:26.208Z,70.18
2018-04-22T00:47:26.178Z,69.99
2018-04-22T00:48:26.128Z,69.42
2018-04-22T00:49:26.090Z,70.24
2018-04-22T00:50:26.047Z,69.95
2018-04-22T00:51:26.009Z,70.15
2018-04-22T00:52:25.965Z,70.62
2018-04-22T00:53:25.927Z,70.53
2018-04-22T00:54:25.886Z,69.76
2018-04-22T00:55:25.840Z,69.76
2018-04-22T00:56:25.803Z,70.43
2018-04-22T00:57:25.765Z,69.86
2018-04-22T00:58:25.719Z,69.86
2018-04-22T00:59:25.678Z,70.24
2018-04-22T01:00:25.637Z,70.43
2018-04-22T01:01:25.600Z,70.34
2018-04-22T01:02:25.556Z,70.15
2018-04-22T01:03:25.513Z,70.43
2018-04-22T01:04:25.473Z,70.81
2018-04-22T01:05:25.433Z,71.20
2018-04-22T01:06:25.390Z,71.11
2018-04-22T01:07:25.349Z,71.20
2018-04-22T01:08:25.332Z,71.48
2018-04-22T01:09:25.267Z,71.20
2018-04-22T01:10:25.232Z,71.01
2018-04-22T01:11:25.189Z,70.91
2018-04-22T01:12:25.146Z,71.01
2018-04-22T01:13:25.104Z,71.11
2018-04-22T01:14:25.062Z,71.11
2018-04-22T01:15:25.024Z,71.39
2018-04-22T01:16:25.031Z,71.39
2018-04-22T01:17:24.940Z,71.39
2018-04-22T01:18:24.924Z,71.39
2018-04-22T01:19:24.856Z,72.06
2018-04-22T01:20:24.829Z,71.68
2018-04-22T01:21:24.777Z,71.77
2018-04-22T01:22:24.735Z,71.68
2018-04-22T01:23:24.698Z,71.48
2018-04-22T01:24:24.655Z,72.44
2018-04-22T01:25:24.614Z,71.68
2018-04-22T01:26:24.574Z,71.87
2018-04-22T01:27:24.544Z,72.16
2018-04-22T01:28:24.498Z,71.93
2018-04-22T01:29:24.449Z,72.22
2018-04-22T01:30:24.411Z,72.41
2018-04-22T01:31:24.368Z,72.22
2018-04-22T01:32:24.327Z,72.41
2018-04-22T01:33:24.290Z,72.34
2018-04-22T01:34:24.251Z,72.79
2018-04-22T01:35:24.204Z,72.41
2018-04-22T01:36:24.165Z,72.50
2018-04-22T01:37:24.123Z,72.69
2018-04-22T01:38:24.080Z,72.60
2018-04-22T01:39:24.041Z,72.69
2018-04-22T01:40:24.060Z,72.12
2018-04-22T01:41:23.956Z,72.69
2018-04-22T01:42:23.922Z,72.79
2018-04-22T01:43:23.876Z,72.79
2018-04-22T01:44:23.835Z,72.50
2018-04-22T01:45:23.803Z,72.79
2018-04-22T01:46:23.753Z,72.98
2018-04-22T01:47:23.711Z,72.41
2018-04-22T01:48:23.673Z,72.60
2018-04-22T01:49:23.629Z,72.12
2018-04-22T01:50:23.588Z,72.41
2018-04-22T01:51:23.547Z,72.79
2018-04-22T01:52:23.504Z,72.69
2018-04-22T01:53:23.463Z,72.60
2018-04-22T01:54:23.423Z,72.69
2018-04-22T01:55:23.380Z,73.46
2018-04-22T01:56:23.342Z,73.36
2018-04-22T01:57:23.301Z,73.27
2018-04-22T01:58:23.258Z,72.98
2018-04-22T01:59:23.216Z,73.17
2018-04-22T02:00:23.174Z,73.36
2018-04-22T02:01:23.131Z,72.41
2018-04-22T02:02:23.092Z,72.88
2018-04-22T02:03:23.051Z,72.69
2018-04-22T02:04:23.007Z,72.60
2018-04-22T02:05:22.966Z,72.50
2018-04-22T02:06:22.925Z,72.79
2018-04-22T02:07:22.888Z,73.08
2018-04-22T02:08:22.843Z,72.60
2018-04-22T02:09:22.802Z,73.08
2018-04-22T02:10:22.760Z,72.60
2018-04-22T02:11:22.720Z,72.50
2018-04-22T02:12:22.678Z,73.17
2018-04-22T02:13:22.636Z,73.46
2018-04-22T02:14:22.594Z,72.88
2018-04-22T02:15:22.553Z,72.69
2018-04-22T02:16:22.515Z,72.88
2018-04-22T02:17:22.469Z,72.69
2018-04-22T02:18:22.432Z,72.60
2018-04-22T02:19:22.388Z,72.60
2018-04-22T02:20:22.346Z,72.02
2018-04-22T02:21:22.305Z,72.69
2018-04-22T02:22:22.264Z,72.69
2018-04-22T02:23:22.224Z,72.41
2018-04-22T02:24:22.181Z,72.12
2018-04-22T02:25:22.139Z,72.79
2018-04-22T02:26:22.098Z,72.60
2018-04-22T02:27:22.058Z,72.69
2018-04-22T02:28:22.018Z,72.98
2018-04-22T02:29:21.976Z,72.31
2018-04-22T02:30:21.934Z,72.41
2018-04-22T02:31:21.895Z,72.31
2018-04-22T02:32:21.853Z,72.50
2018-04-22T02:33:21.810Z,72.41
2018-04-22T02:34:21.768Z,72.79
2018-04-22T02:35:21.726Z,72.79
2018-04-22T02:36:21.685Z,72.88
2018-04-22T02:37:21.647Z,72.50
2018-04-22T02:38:21.606Z,72.60
2018-04-22T02:39:21.561Z,72.60
2018-04-22T02:40:21.520Z,72.60
2018-04-22T02:41:21.477Z,72.79
2018-04-22T02:42:21.437Z,72.60
2018-04-22T02:43:21.395Z,72.79
2018-04-22T02:44:21.355Z,72.41
2018-04-22T02:45:21.313Z,72.50
2018-04-22T02:46:21.273Z,72.60
2018-04-22T02:47:21.229Z,72.79
2018-04-22T02:48:21.188Z,72.60
2018-04-22T02:49:21.146Z,72.98
2018-04-22T02:50:21.105Z,73.46
2018-04-22T02:51:21.067Z,73.27
2018-04-22T02:52:21.027Z,73.75
2018-04-22T02:53:20.982Z,74.04
2018-04-22T02:54:20.942Z,74.13
2018-04-22T02:55:20.897Z,74.04
2018-04-22T02:56:20.857Z,73.94
2018-04-22T02:57:20.816Z,73.71
2018-04-22T02:58:20.775Z,73.52
2018-04-22T02:59:20.731Z,73.90
2018-04-22T03:00:20.690Z,74.09
2018-04-22T03:01:20.650Z,74.09
2018-04-22T03:02:20.608Z,73.61
2018-04-22T03:03:20.571Z,73.90
2018-04-22T03:04:20.527Z,73.61
2018-04-22T03:05:20.483Z,74.09
2018-04-22T03:06:20.444Z,74.09
2018-04-22T03:07:20.401Z,74.57
2018-04-22T03:08:20.362Z,73.99
2018-04-22T03:09:20.315Z,74.28
2018-04-22T03:10:20.275Z,73.80
2018-04-22T03:11:20.234Z,74.28
2018-04-22T03:12:20.195Z,74.19
2018-04-22T03:13:20.151Z,74.95
2018-04-22T03:14:20.110Z,75.34
2018-04-22T03:15:20.071Z,75.14
2018-04-22T03:16:20.029Z,74.85
2018-04-22T03:17:19.982Z,75.14
2018-04-22T03:18:19.942Z,75.34
2018-04-22T03:19:19.902Z,74.95
2018-04-22T03:20:19.860Z,75.14
2018-04-22T03:21:19.819Z,75.24
2018-04-22T03:22:19.810Z,75.71
2018-04-22T03:23:19.735Z,75.43
2018-04-22T03:24:19.694Z,75.34
2018-04-22T03:25:19.656Z,75.43
2018-04-22T03:26:19.612Z,75.24
2018-04-22T03:27:19.575Z,75.24
2018-04-22T03:28:19.530Z,75.43
2018-04-22T03:29:19.485Z,75.91
2018-04-22T03:30:19.445Z,75.81
2018-04-22T03:31:19.410Z,75.91
2018-04-22T03:32:19.359Z,75.62
2018-04-22T03:33:19.319Z,76.29
2018-04-22T03:34:19.279Z,76.29
2018-04-22T03:35:19.239Z,76.10
2018-04-22T03:36:19.195Z,76.00
2018-04-22T03:37:19.152Z,75.81
2018-04-22T03:38:19.114Z,75.81
2018-04-22T03:39:19.071Z,76.96
2018-04-22T03:40:19.030Z,76.39
2018-04-22T03:41:18.985Z,76.67
2018-04-22T03:42:18.951Z,76.77
2018-04-22T03:43:18.910Z,76.77
2018-04-22T03:44:18.869Z,77.15
2018-04-22T03:45:18.820Z,76.86
2018-04-22T03:46:18.780Z,77.34
2018-04-22T03:47:18.746Z,77.25
2018-04-22T03:48:18.696Z,77.21
2018-04-22T03:49:18.659Z,77.21
2018-04-22T03:50:18.621Z,77.59
2018-04-22T03:51:18.572Z,77.11
2018-04-22T03:52:18.530Z,77.40
2018-04-22T03:53:18.494Z,77.50
2018-04-22T03:54:18.452Z,77.44
2018-04-22T03:55:18.405Z,77.01
2018-04-22T03:56:18.365Z,77.21
2018-04-22T03:57:18.321Z,77.30
2018-04-22T03:58:18.286Z,77.50
2018-04-22T03:59:18.237Z,77.59
2018-04-22T04:00:18.196Z,77.59
2018-04-22T04:01:18.156Z,77.40
2018-04-22T04:02:18.112Z,77.40
2018-04-22T04:03:18.070Z,77.78
2018-04-22T04:04:18.035Z,77.78
2018-04-22T04:05:17.987Z,77.97
2018-04-22T04:06:17.947Z,78.36
2018-04-22T04:07:17.903Z,78.83
2018-04-22T04:08:17.863Z,78.36
2018-04-22T04:09:17.822Z,78.83
2018-04-22T04:10:17.782Z,78.83
2018-04-22T04:11:17.736Z,78.64
2018-04-22T04:12:17.696Z,78.64
2018-04-22T04:13:17.657Z,78.64
2018-04-22T04:14:17.614Z,78.64
2018-04-22T04:15:17.570Z,78.83
2018-04-22T04:16:17.527Z,78.64
2018-04-22T04:17:17.486Z,78.74
2018-04-22T04:18:17.445Z,78.64
2018-04-22T04:19:17.468Z,78.36
2018-04-22T04:20:17.365Z,78.07
2018-04-22T04:21:17.322Z,78.26
2018-04-22T04:22:17.277Z,77.97
2018-04-22T04:23:17.235Z,78.74
2018-04-22T04:24:17.196Z,78.74
2018-04-22T04:25:17.154Z,78.64
2018-04-22T04:26:17.113Z,78.68
2018-04-22T04:27:17.069Z,78.49
2018-04-22T04:28:17.028Z,78.30
2018-04-22T04:29:16.984Z,78.36
2018-04-22T04:30:16.945Z,78.74
2018-04-22T04:31:16.903Z,78.36
2018-04-22T04:32:16.863Z,78.93
2018-04-22T04:33:16.819Z,78.74
2018-04-22T04:34:16.778Z,78.93
2018-04-22T04:35:16.734Z,78.64
2018-04-22T04:36:16.696Z,78.55
2018-04-22T04:37:16.657Z,78.83
2018-04-22T04:38:16.621Z,79.02
2018-04-22T04:39:16.568Z,78.83
2018-04-22T04:40:16.528Z,78.58
2018-04-22T04:41:16.483Z,78.55
2018-04-22T04:42:16.444Z,78.83
2018-04-22T04:43:16.404Z,79.02
2018-04-22T04:44:16.360Z,79.12
2018-04-22T04:45:16.314Z,79.02
2018-04-22T04:46:16.274Z,79.22
2018-04-22T04:47:16.237Z,79.50
2018-04-22T04:48:16.193Z,79.02
2018-04-22T04:49:16.151Z,79.02
2018-04-22T04:50:16.110Z,79.60
2018-04-22T04:51:16.069Z,79.41
2018-04-22T04:52:16.028Z,79.41
2018-04-22T04:53:15.979Z,78.83
2018-04-22T04:54:15.941Z,79.12
2018-04-22T04:55:15.901Z,79.02
2018-04-22T04:56:15.862Z,79.69
2018-04-22T04:57:15.816Z,79.50
2018-04-22T04:58:15.773Z,79.22
2018-04-22T04:59:15.731Z,79.22
2018-04-22T05:00:15.696Z,79.02
2018-04-22T05:01:15.652Z,78.93
2018-04-22T05:02:15.604Z,79.50
2018-04-22T05:03:15.562Z,79.50
2018-04-22T05:04:15.524Z,79.79
2018-04-22T05:05:15.478Z,79.69
2018-04-22T05:06:15.448Z,79.88
2018-04-22T05:07:15.399Z,79.50
2018-04-22T05:08:15.354Z,79.98
2018-04-22T05:09:15.317Z,80.27
2018-04-22T05:10:15.273Z,80.17
2018-04-22T05:11:15.231Z,80.27
2018-04-22T05:12:15.189Z,80.46
2018-04-22T05:13:15.148Z,80.07
2018-04-22T05:14:15.104Z,80.27
2018-04-22T05:15:15.066Z,80.27
2018-04-22T05:16:15.022Z,80.27
2018-04-22T05:17:14.981Z,80.07
2018-04-22T05:18:14.938Z,79.88
2018-04-22T05:19:14.897Z,80.27
2018-04-22T05:20:14.851Z,81.22
2018-04-22T05:21:14.820Z,80.36
2018-04-22T05:22:14.769Z,80.93
2018-04-22T05:23:14.728Z,80.36
2018-04-22T05:24:14.689Z,80.84
2018-04-22T05:25:14.644Z,80.65
2018-04-22T05:26:14.601Z,80.74
2018-04-22T05:27:14.567Z,80.65
2018-04-22T05:28:14.519Z,80.46
2018-04-22T05:29:14.480Z,80.93
2018-04-22T05:30:14.436Z,80.65
2018-04-22T05:31:14.409Z,80.93
2018-04-22T05:32:14.353Z,81.32
2018-04-22T05:33:14.309Z,81.36
2018-04-22T05:34:14.268Z,80.88
2018-04-22T05:35:14.226Z,80.79
2018-04-22T05:36:14.182Z,80.46
2018-04-22T05:37:14.143Z,81.07
2018-04-22T05:38:14.104Z,81.26
2018-04-22T05:39:14.062Z,81.07
2018-04-22T05:40:14.016Z,81.36
2018-04-22T05:41:13.975Z,81.07
2018-04-22T05:42:13.934Z,81.45
2018-04-22T05:43:13.892Z,81.65
2018-04-22T05:44:13.858Z,81.16
2018-04-22T05:45:13.808Z,80.69
2018-04-22T05:46:13.765Z,81.36
2018-04-22T05:47:13.728Z,80.88
2018-04-22T05:48:13.683Z,81.07
2018-04-22T05:49:13.641Z,81.45
2018-04-22T05:50:13.598Z,81.07
2018-04-22T05:51:13.558Z,81.45
2018-04-22T05:52:13.514Z,81.74
2018-04-22T05:53:13.476Z,81.45
2018-04-22T05:54:13.436Z,81.36
2018-04-22T05:55:13.395Z,80.88
2018-04-22T05:56:13.353Z,80.79
2018-04-22T05:57:13.306Z,81.16
2018-04-22T05:58:13.266Z,81.07
2018-04-22T05:59:13.225Z,80.79
2018-04-22T06:00:13.188Z,80.88
2018-04-22T06:01:13.142Z,81.45
2018-04-22T06:02:13.142Z,80.79
2018-04-22T06:03:13.057Z,80.59
2018-04-22T06:04:13.018Z,80.50
2018-04-22T06:05:12.976Z,80.11
2018-04-22T06:06:12.936Z,80.50
2018-04-22T06:07:12.897Z,80.25
2018-04-22T06:08:12.857Z,80.35
2018-04-22T06:09:12.811Z,80.16
2018-04-22T06:10:12.766Z,80.35
2018-04-22T06:11:12.730Z,79.96
2018-04-22T06:12:12.686Z,80.16
2018-04-22T06:13:12.641Z,79.96
2018-04-22T06:14:12.604Z,80.25
2018-04-22T06:15:12.560Z,80.44
2018-04-22T06:16:12.518Z,80.16
2018-04-22T06:17:12.490Z,81.02
2018-04-22T06:18:12.438Z,80.35
2018-04-22T06:19:12.398Z,80.06
2018-04-22T06:20:12.361Z,80.35
2018-04-22T06:21:12.310Z,79.68
2018-04-22T06:22:12.269Z,80.10
2018-04-22T06:23:12.228Z,79.62
2018-04-22T06:24:12.188Z,79.52
2018-04-22T06:25:12.148Z,79.43
2018-04-22T06:26:12.103Z,79.62
2018-04-22T06:27:12.067Z,79.14
2018-04-22T06:28:12.028Z,79.52
2018-04-22T06:29:11.978Z,79.33
2018-04-22T06:30:11.942Z,79.43
2018-04-22T06:31:11.896Z,79.05
2018-04-22T06:32:11.857Z,79.05
2018-04-22T06:33:11.823Z,79.14
2018-04-22T06:34:11.773Z,78.95
2018-04-22T06:35:11.738Z,78.89
2018-04-22T06:36:11.692Z,79.37
2018-04-22T06:37:11.648Z,78.99
2018-04-22T06:38:11.609Z,79.28
2018-04-22T06:39:11.568Z,79.08
2018-04-22T06:40:11.569Z,78.32
2018-04-22T06:41:11.486Z,77.84
2018-04-22T06:42:11.448Z,78.89
2018-04-22T06:43:11.407Z,78.70
2018-04-22T06:44:11.368Z,78.99
2018-04-22T06:45:11.324Z,78.45
2018-04-22T06:46:11.329Z,77.97
2018-04-22T06:47:11.240Z,77.59
2018-04-22T06:48:11.200Z,77.11
2018-04-22T06:49:11.161Z,77.21
2018-04-22T06:50:11.121Z,77.50
2018-04-22T06:51:11.078Z,77.40
2018-04-22T06:52:11.040Z,76.82
2018-04-22T06:53:10.996Z,76.82
2018-04-22T06:54:10.959Z,77.44
2018-04-22T06:55:10.914Z,77.63
2018-04-22T06:56:10.875Z,77.34
2018-04-22T06:57:10.834Z,76.86
2018-04-22T06:58:10.793Z,76.67
2018-04-22T06:59:10.751Z,76.96
2018-04-22T07:00:10.711Z,76.77
2018-04-22T07:01:10.671Z,76.00
2018-04-22T07:02:10.638Z,75.62
2018-04-22T07:03:10.589Z,76.39
2018-04-22T07:04:10.547Z,75.71
2018-04-22T07:05:10.506Z,76.00
2018-04-22T07:06:10.467Z,76.14
2018-04-22T07:07:10.427Z,75.95
2018-04-22T07:08:10.389Z,74.98
2018-04-22T07:09:10.346Z,74.51
2018-04-22T07:10:10.306Z,74.41
2018-04-22T07:11:10.267Z,74.98
2018-04-22T07:12:10.228Z,73.93
2018-04-22T07:13:10.184Z,74.41
2018-04-22T07:14:10.143Z,74.31
2018-04-22T07:15:10.104Z,73.83
2018-04-22T07:16:10.062Z,73.93
2018-04-22T07:17:10.023Z,74.89
2018-04-22T07:18:09.992Z,74.35
2018-04-22T07:19:09.953Z,73.39
2018-04-22T07:20:09.908Z,73.30
2018-04-22T07:21:09.867Z,73.68
2018-04-22T07:22:09.825Z,73.58
2018-04-22T07:23:09.787Z,73.49
2018-04-22T07:24:09.794Z,73.87
2018-04-22T07:25:09.704Z,72.63
2018-04-22T07:26:09.666Z,72.91
2018-04-22T07:27:09.630Z,72.72
2018-04-22T07:28:09.588Z,72.91
2018-04-22T07:29:09.541Z,73.52
2018-04-22T07:30:09.503Z,73.52
2018-04-22T07:31:09.462Z,73.62
2018-04-22T07:32:09.443Z,72.95
2018-04-22T07:33:09.382Z,72.47
2018-04-22T07:34:09.345Z,72.37
2018-04-22T07:35:09.308Z,72.18
2018-04-22T07:36:09.262Z,72.85
2018-04-22T07:37:09.222Z,72.47
2018-04-22T07:38:09.185Z,72.50
2018-04-22T07:39:09.148Z,72.50
2018-04-22T07:40:09.110Z,72.12
2018-04-22T07:41:09.070Z,72.41
2018-04-22T07:42:09.025Z,74.52
2018-04-22T07:43:08.992Z,73.94
2018-04-22T07:44:08.958Z,73.94
2018-04-22T07:45:08.906Z,73.37
2018-04-22T07:46:08.868Z,72.41
2018-04-22T07:47:08.829Z,72.54
2018-04-22T07:48:08.795Z,72.34
2018-04-22T07:49:08.750Z,72.34
2018-04-22T07:50:08.709Z,73.11
2018-04-22T07:51:08.675Z,74.08
2018-04-22T07:52:08.637Z,74.30
2018-04-22T07:53:08.592Z,74.50
2018-04-22T07:54:08.556Z,72.86
2018-04-22T07:55:08.513Z,72.19
2018-04-22T07:56:08.479Z,72.86
2018-04-22T07:57:08.436Z,72.48
2018-04-22T07:58:08.394Z,71.61
2018-04-22T07:59:08.357Z,71.84
2018-04-22T08:00:10.968Z,73.28
2018-04-22T08:01:08.277Z,73.00
2018-04-22T08:02:08.240Z,71.84
2018-04-22T08:03:08.198Z,72.42
2018-04-22T08:04:08.162Z,72.71
2018-04-22T08:05:08.124Z,72.74
2018-04-22T08:06:08.084Z,71.59
2018-04-22T08:07:08.046Z,71.49
2018-04-22T08:08:08.006Z,70.24
2018-04-22T08:09:07.966Z,69.38
2018-04-22T08:10:07.929Z,70.62
2018-04-22T08:11:07.890Z,69.76
2018-04-22T08:12:07.854Z,69.02
2018-04-22T08:13:07.811Z,68.84
2018-04-22T08:14:07.774Z,70.18
2018-04-22T08:15:07.736Z,71.53
2018-04-22T08:16:07.697Z,69.06
2018-04-22T08:17:07.657Z,68.68
2018-04-22T08:18:07.620Z,69.15
2018-04-22T08:19:07.583Z,69.15
2018-04-22T08:20:07.565Z,66.94
2018-04-22T08:21:07.505Z,67.36
2018-04-22T08:22:07.468Z,66.78
2018-04-22T08:23:07.437Z,65.33
2018-04-22T08:24:07.395Z,65.24
2018-04-22T08:25:07.353Z,65.81
2018-04-22T08:26:07.319Z,64.40
2018-04-22T08:27:07.291Z,64.02
2018-04-22T08:28:07.265Z,64.89
2018-04-22T08:29:07.207Z,65.95
2018-04-22T08:30:07.169Z,65.37
2018-04-22T08:31:07.127Z,64.02
2018-04-22T08:32:07.089Z,63.57
2018-04-22T08:33:07.056Z,63.57
2018-04-22T08:34:07.015Z,63.47
2018-04-22T08:35:06.979Z,63.76
2018-04-22T08:36:06.947Z,62.12
2018-04-22T08:37:06.899Z,61.67
2018-04-22T08:38:06.865Z,60.89
2018-04-22T08:39:06.829Z,59.93
2018-04-22T08:40:06.791Z,60.41
2018-04-22T08:41:06.748Z,61.60
2018-04-22T08:42:06.714Z,62.66
2018-04-22T08:43:06.676Z,60.64
2018-04-22T08:44:06.640Z,59.67
2018-04-22T08:45:06.600Z,57.54
2018-04-22T08:46:06.567Z,57.64
2018-04-22T08:47:06.525Z,59.19
2018-04-22T08:48:06.498Z,57.29
2018-04-22T08:49:06.455Z,57.87
2018-04-22T08:50:06.416Z,57.38
2018-04-22T08:51:06.386Z,58.45
2018-04-22T08:52:06.341Z,58.28
2018-04-22T08:53:06.308Z,57.79
2018-04-22T08:54:06.272Z,58.09
2018-04-22T08:55:06.238Z,58.86
2018-04-22T08:56:06.196Z,56.83
2018-04-22T08:57:06.161Z,56.93
2018-04-22T08:58:06.122Z,57.03
2018-04-22T08:59:06.085Z,56.73
2018-04-22T09:00:06.050Z,55.99
2018-04-22T09:01:06.033Z,56.28
2018-04-22T09:02:06.028Z,55.99
2018-04-22T09:03:05.944Z,55.79
2018-04-22T09:04:05.904Z,54.63
2018-04-22T09:05:05.865Z,57.24
2018-04-22T09:06:05.893Z,57.56
2018-04-22T09:07:05.797Z,55.51
2018-04-22T09:08:05.759Z,54.17
2018-04-22T09:09:05.729Z,55.05
2018-04-22T09:10:05.688Z,53.41
2018-04-22T09:11:05.651Z,53.99
2018-04-22T09:12:05.610Z,53.23
2018-04-22T09:13:05.576Z,51.95
2018-04-22T09:14:05.543Z,53.41
2018-04-22T09:15:05.504Z,52.85
2018-04-22T09:16:05.467Z,52.08
2018-04-22T09:17:05.432Z,55.30
2018-04-22T09:18:05.395Z,53.07
2018-04-22T09:19:05.364Z,52.29
2018-04-22T09:20:05.324Z,52.39
2018-04-22T09:21:05.290Z,51.45
2018-04-22T09:22:05.258Z,50.19
2018-04-22T09:23:05.215Z,50.77
2018-04-22T09:24:05.180Z,50.29
2018-04-22T09:25:05.149Z,50.21
2018-04-22T09:26:05.137Z,49.54
2018-04-22T09:27:05.074Z,50.50
2018-04-22T09:28:05.043Z,50.89
2018-04-22T09:29:05.003Z,50.31
2018-04-22T09:30:04.970Z,49.95
2018-04-22T09:31:04.932Z,49.17
2018-04-22T09:32:04.897Z,49.56
2018-04-22T09:33:04.878Z,49.46
2018-04-22T09:34:04.827Z,49.29
2018-04-22T09:35:04.793Z,47.93
2018-04-22T09:36:04.790Z,49.19
2018-04-22T09:37:04.720Z,49.58
2018-04-22T09:38:04.683Z,49.00
2018-04-22T09:39:04.655Z,47.55
2018-04-22T09:40:04.617Z,47.86
2018-04-22T09:41:04.581Z,46.89
2018-04-22T09:42:04.547Z,48.05
2018-04-22T09:43:04.516Z,48.05
2018-04-22T09:44:04.478Z,47.78
2018-04-22T09:45:04.448Z,46.62
2018-04-22T09:46:04.407Z,47.30
2018-04-22T09:47:04.373Z,45.84
2018-04-22T09:48:04.338Z,45.75
2018-04-22T09:49:04.307Z,44.60
2018-04-22T09:50:04.271Z,44.89
2018-04-22T09:51:04.235Z,44.89
2018-04-22T09:52:04.201Z,44.89
2018-04-22T09:53:04.165Z,44.70
2018-04-22T09:54:04.130Z,44.89
2018-04-22T09:55:04.098Z,45.69
2018-04-22T09:56:04.065Z,45.50
2018-04-22T09:57:04.032Z,44.53
2018-04-22T09:58:03.995Z,44.82
2018-04-22T09:59:03.962Z,44.84
2018-04-22T10:00:03.933Z,44.35
2018-04-22T10:01:03.892Z,44.16
2018-04-22T10:02:03.858Z,44.26
2018-04-22T10:03:03.827Z,42.90
2018-04-22T10:04:03.798Z,43.40
2018-04-22T10:05:03.764Z,42.53
2018-04-22T10:06:03.722Z,42.63
2018-04-22T10:07:03.689Z,43.21
2018-04-22T10:08:03.655Z,42.24
2018-04-22T10:09:03.623Z,42.53
2018-04-22T10:10:03.590Z,42.35
2018-04-22T10:11:03.557Z,41.94
2018-04-22T10:12:03.525Z,42.06
2018-04-22T10:13:03.495Z,40.88
2018-04-22T10:14:03.454Z,41.85
2018-04-22T10:15:03.421Z,41.77
2018-04-22T10:16:03.393Z,41.86
2018-04-22T10:17:03.357Z,42.65
2018-04-22T10:18:03.319Z,42.74
2018-04-22T10:19:03.287Z,41.77
2018-04-22T10:20:03.279Z,40.80
2018-04-22T10:21:03.219Z,41.19
2018-04-22T10:22:03.186Z,40.70
2018-04-22T10:23:03.158Z,40.70
2018-04-22T10:24:03.124Z,41.19
2018-04-22T10:25:03.087Z,41.67
2018-04-22T10:26:03.064Z,40.50
2018-04-22T10:27:03.020Z,41.96
2018-04-22T10:28:02.994Z,41.28
2018-04-22T10:29:02.960Z,40.31
2018-04-22T10:30:02.922Z,40.01
2018-04-22T10:31:02.888Z,40.31
2018-04-22T10:32:02.856Z,40.70
2018-04-22T10:33:02.823Z,41.09
2018-04-22T10:34:02.789Z,41.67
2018-04-22T10:35:02.758Z,40.31
2018-04-22T10:36:02.755Z,40.70
2018-04-22T10:37:02.691Z,41.28
2018-04-22T10:38:02.653Z,40.50
2018-04-22T10:39:02.622Z,41.19
2018-04-22T10:40:02.623Z,43.13
2018-04-22T10:41:02.559Z,42.57
2018-04-22T10:42:02.550Z,40.70
2018-04-22T10:43:02.493Z,40.42
2018-04-22T10:44:02.461Z,40.03
2018-04-22T10:45:02.424Z,40.13
2018-04-22T10:46:02.393Z,40.33
2018-04-22T10:47:02.361Z,41.01
2018-04-22T10:48:02.326Z,40.62
2018-04-22T10:49:02.301Z,39.94
2018-04-22T10:50:02.254Z,40.72
2018-04-22T10:51:02.226Z,40.23
2018-04-22T10:52:02.193Z,39.84
2018-04-22T10:53:02.159Z,40.03
2018-04-22T10:54:02.127Z,39.47
2018-04-22T10:55:02.090Z,39.18
2018-04-22T10:56:02.063Z,40.35
2018-04-22T10:57:02.023Z,38.69
2018-04-22T10:58:02.087Z,39.08
2018-04-22T10:59:01.960Z,38.20
2018-04-22T11:00:01.931Z,39.28
2018-04-22T11:01:01.896Z,40.35
2018-04-22T11:02:01.924Z,39.37
2018-04-22T11:03:01.833Z,39.08
2018-04-22T11:04:01.793Z,39.28
2018-04-22T11:05:01.769Z,39.57
2018-04-22T11:06:01.732Z,38.98
2018-04-22T11:07:01.698Z,38.89
2018-04-22T11:08:01.667Z,38.89
2018-04-22T11:09:01.631Z,38.30
2018-04-22T11:10:01.606Z,38.59
2018-04-22T11:11:01.566Z,38.81
2018-04-22T11:12:01.534Z,38.01
2018-04-22T11:13:01.501Z,38.12
2018-04-22T11:14:01.465Z,37.73
2018-04-22T11:15:01.441Z,37.83
2018-04-22T11:16:01.402Z,37.71
2018-04-22T11:17:01.370Z,37.73
2018-04-22T11:18:01.337Z,38.40
2018-04-22T11:19:01.308Z,38.30
2018-04-22T11:20:01.280Z,38.49
2018-04-22T11:21:01.236Z,38.96
2018-04-22T11:22:01.274Z,39.06
2018-04-22T11:23:01.173Z,40.23
2018-04-22T11:24:01.140Z,39.00
2018-04-22T11:25:01.111Z,37.07
2018-04-22T11:26:01.083Z,36.68
2018-04-22T11:27:01.067Z,37.45
2018-04-22T11:29:00.979Z,37.73
2018-04-22T11:30:00.948Z,37.71
2018-04-22T11:31:00.914Z,38.22
2018-04-22T11:32:00.882Z,38.12
2018-04-22T11:33:00.853Z,38.42
2018-04-22T11:34:00.817Z,37.83
2018-04-22T11:35:00.788Z,37.85
2018-04-22T11:36:00.756Z,37.95
2018-04-22T11:37:00.720Z,38.14
2018-04-22T11:38:00.688Z,37.77
2018-04-22T11:39:00.749Z,37.30
2018-04-22T11:40:00.626Z,36.72
2018-04-22T11:41:00.591Z,36.91
2018-04-22T11:42:00.624Z,37.02
2018-04-22T11:43:00.551Z,35.75
2018-04-22T11:44:00.496Z,35.84
2018-04-22T11:45:00.465Z,36.15
2018-04-22T11:46:00.456Z,35.66
2018-04-22T11:47:00.402Z,35.75
2018-04-22T11:48:00.374Z,36.15
2018-04-22T11:49:00.339Z,36.04
2018-04-22T11:50:00.316Z,36.04
2018-04-22T11:51:00.290Z,35.64
2018-04-22T11:52:00.255Z,35.55
2018-04-22T11:53:00.216Z,36.33
2018-04-22T11:54:00.195Z,35.64
2018-04-22T11:55:00.155Z,35.17
2018-04-22T11:56:00.125Z,34.68
2018-04-22T11:57:00.095Z,35.19
2018-04-22T11:58:00.068Z,34.99
2018-04-22T11:59:00.037Z,35.17
2018-04-22T12:00:00.059Z,35.66
2018-04-22T12:00:59.990Z,35.95
2018-04-22T12:01:59.955Z,34.68
2018-04-22T12:02:59.910Z,34.88
2018-04-22T12:03:59.885Z,34.68
2018-04-22T12:04:59.899Z,35.19
2018-04-22T12:05:59.855Z,33.72
2018-04-22T12:06:59.904Z,33.62
2018-04-22T12:07:59.760Z,33.64
2018-04-22T12:08:59.729Z,33.64
2018-04-22T12:09:59.701Z,33.45
2018-04-22T12:10:59.667Z,33.85
2018-04-22T12:11:59.651Z,34.14
2018-04-22T12:12:59.611Z,34.80
2018-04-22T12:13:59.577Z,34.11
2018-04-22T12:14:59.549Z,33.82
2018-04-22T12:15:59.533Z,34.21
2018-04-22T12:16:59.488Z,34.33
2018-04-22T12:17:59.469Z,33.74
2018-04-22T12:18:59.452Z,33.84
2018-04-22T12:19:59.400Z,33.74
2018-04-22T12:20:59.380Z,34.23
2018-04-22T12:21:59.340Z,33.94
2018-04-22T12:22:59.349Z,34.62
2018-04-22T12:23:59.300Z,34.31
2018-04-22T12:24:59.252Z,34.31
2018-04-22T12:26:59.195Z,34.11
2018-04-22T12:28:59.132Z,34.39
2018-04-22T12:29:59.107Z,35.07
2018-04-22T12:30:59.075Z,34.38
2018-04-22T12:31:59.044Z,35.45
2018-04-22T12:32:59.015Z,36.11
2018-04-22T12:33:58.984Z,36.49
2018-04-22T12:34:58.954Z,36.68
2018-04-22T12:35:58.960Z,37.05
2018-04-22T12:36:58.936Z,37.45
2018-04-22T12:37:58.861Z,38.02
2018-04-22T12:38:58.832Z,38.89
2018-04-22T12:39:58.802Z,38.69
2018-04-22T12:40:58.768Z,39.45
2018-04-22T12:41:58.742Z,39.84
2018-04-22T12:42:58.710Z,39.36
2018-04-22T12:43:58.680Z,40.01
2018-04-22T12:44:58.657Z,40.21
2018-04-22T12:45:58.612Z,40.60
2018-04-22T12:46:58.587Z,40.48
2018-04-22T12:47:58.556Z,40.88
2018-04-22T12:48:58.523Z,40.58
2018-04-22T12:49:58.487Z,40.68
2018-04-22T12:50:58.453Z,41.85
2018-04-22T12:51:58.460Z,40.95
2018-04-22T12:52:58.428Z,39.98
2018-04-22T12:53:58.398Z,39.98
2018-04-22T12:54:58.331Z,40.19